createdAt,value
2019-02-08T07:58:18.085Z,96195.687
2019-02-08T07:58:26.279Z,96197.601
2019-02-08T07:58:34.436Z,96197.421
2019-02-08T07:58:42.628Z,96199.703
2019-02-08T07:58:50.821Z,96197.718
2019-02-08T07:58:59.274Z,96198.828
2019-02-08T07:59:07.462Z,96199.164
2019-02-08T07:59:16.695Z,96198.671
2019-02-08T07:59:24.896Z,96196.429
2019-02-08T07:59:33.203Z,96197.421
2019-02-08T07:59:41.399Z,96198.453
2019-02-08T07:59:49.658Z,96198.125
2019-02-08T07:59:57.843Z,96196.875
2019-02-08T08:00:06.044Z,96199.625
2019-02-08T08:00:14.213Z,96199.203
2019-02-08T08:00:22.409Z,96200.953
2019-02-08T08:00:30.606Z,96201.203
2019-02-08T08:00:39.775Z,96199.703
2019-02-08T08:00:48.144Z,96199.453
2019-02-08T08:00:56.320Z,96201.562
2019-02-08T08:01:04.494Z,96201.984
2019-02-08T08:01:12.742Z,96202.812
2019-02-08T08:01:20.924Z,96198.664
2019-02-08T08:01:29.075Z,96201.984
2019-02-08T08:01:37.278Z,96199.164
2019-02-08T08:01:45.468Z,96203.89
2019-02-08T08:01:53.695Z,96200.828
2019-02-08T08:02:01.874Z,96200.234
2019-02-08T08:02:10.088Z,96199.992
2019-02-08T08:02:19.308Z,96203.976
2019-02-08T08:02:27.562Z,96204.64
2019-02-08T08:02:35.738Z,96203.726
2019-02-08T08:02:43.943Z,96203.312
2019-02-08T08:02:52.131Z,96206.132
2019-02-08T08:03:00.368Z,96204.476
2019-02-08T08:03:08.597Z,96204.14
2019-02-08T08:03:16.762Z,96204.007
2019-02-08T08:03:25.006Z,96202.015
2019-02-08T08:03:33.824Z,96203.093
2019-02-08T08:03:42.251Z,96203.843
2019-02-08T08:03:50.858Z,96206.25
2019-02-08T08:04:03.346Z,96203.671
2019-02-08T08:04:12.616Z,96202.515
2019-02-08T08:04:21.775Z,96203.015
2019-02-08T08:04:30.648Z,96197.046
2019-02-08T08:04:39.846Z,96201.859
2019-02-08T08:04:49.041Z,96203.671
2019-02-08T08:04:58.180Z,96203.429
2019-02-08T08:05:06.630Z,96205.671
2019-02-08T08:05:15.373Z,96200.273
2019-02-08T08:05:24.311Z,96200.906
2019-02-08T08:05:33.366Z,96203.765
2019-02-08T08:05:42.364Z,96200.078
2019-02-08T08:05:51.275Z,96202.64
2019-02-08T08:06:00.304Z,96205.64
2019-02-08T08:06:09.527Z,96203.562
2019-02-08T08:06:18.954Z,96203.062
2019-02-08T08:06:28.322Z,96200.656
2019-02-08T08:06:37.356Z,96203.484
2019-02-08T08:06:46.724Z,96202.687
2019-02-08T08:06:55.940Z,96197.671
2019-02-08T08:07:04.601Z,96201.078
2019-02-08T08:07:13.955Z,96200.023
2019-02-08T08:07:23.207Z,96201.078
2019-02-08T08:07:32.538Z,96198.75
2019-02-08T08:07:42.921Z,96201.359
2019-02-08T08:07:53.035Z,96198.921
2019-02-08T08:08:02.843Z,96194.968
2019-02-08T08:08:12.089Z,96195.296
2019-02-08T08:08:21.134Z,96196.125
2019-02-08T08:08:29.976Z,96196.046
2019-02-08T08:08:38.818Z,96197.875
2019-02-08T08:08:48.542Z,96196
2019-02-08T08:08:57.643Z,96198.828
2019-02-08T08:09:06.460Z,96196.75
2019-02-08T08:09:15.606Z,96196.75
2019-02-08T08:09:24.715Z,96193.187
2019-02-08T08:09:33.853Z,96193.843
2019-02-08T08:09:43.819Z,96195.875
2019-02-08T08:09:53.009Z,96195.953
2019-02-08T08:10:01.961Z,96194.625
2019-02-08T08:10:11.274Z,96198.984
2019-02-08T08:10:20.427Z,96192.421
2019-02-08T08:10:30.789Z,96196.328
2019-02-08T08:10:41.130Z,96196.578
2019-02-08T08:10:50.502Z,96193.046
2019-02-08T08:10:59.852Z,96196.695
2019-02-08T08:11:08.842Z,96196.453
2019-02-08T08:11:18.709Z,96198.562
2019-02-08T08:11:28.009Z,96198.812
2019-02-08T08:11:37.359Z,96199.218
2019-02-08T08:11:46.647Z,96198.75
2019-02-08T08:11:56.034Z,96201.75
2019-02-08T08:12:05.022Z,96199.921
2019-02-08T08:12:14.163Z,96198.679
2019-02-08T08:12:23.343Z,96200.531
2019-02-08T08:12:32.148Z,96196.882
2019-02-08T08:12:41.493Z,96198.625
2019-02-08T08:12:50.819Z,96196.718
2019-02-08T08:12:59.998Z,96197.054
2019-02-08T08:13:09.099Z,96197.968
2019-02-08T08:13:18.442Z,96197.328
2019-02-08T08:13:27.634Z,96198.5
2019-02-08T08:13:37.029Z,96199.656
2019-02-08T08:13:45.883Z,96200.984
2019-02-08T08:13:55.028Z,96200.359
2019-02-08T08:14:04.034Z,96198.281
2019-02-08T08:14:13.355Z,96195.953
2019-02-08T08:14:22.763Z,96193.882
2019-02-08T08:14:30.944Z,96194.046
2019-02-08T08:14:39.153Z,96195.906
2019-02-08T08:14:47.372Z,96195.734
2019-02-08T08:14:55.918Z,96195.156
2019-02-08T08:15:04.839Z,96194.578
2019-02-08T08:15:14.129Z,96196.601
2019-02-08T08:15:23.185Z,96190.015
2019-02-08T08:15:32.420Z,96193.609
2019-02-08T08:15:41.791Z,96191.375
2019-02-08T08:15:51.065Z,96190.203
2019-02-08T08:16:00.247Z,96192.703
2019-02-08T08:16:09.473Z,96188.656
2019-02-08T08:16:18.872Z,96190.906
2019-02-08T08:16:28.182Z,96193.062
2019-02-08T08:16:37.325Z,96188.5
2019-02-08T08:16:46.566Z,96190.265
2019-02-08T08:16:55.925Z,96189.328
2019-02-08T08:17:04.784Z,96188.531
2019-02-08T08:17:14.189Z,96190.687
2019-02-08T08:17:23.534Z,96186.367
2019-02-08T08:17:32.724Z,96190.015
2019-02-08T08:17:41.919Z,96191.71
2019-02-08T08:17:50.786Z,96189.218
2019-02-08T08:17:59.960Z,96190.75
2019-02-08T08:18:09.649Z,96186.265
2019-02-08T08:18:19.001Z,96188
2019-02-08T08:18:28.352Z,96189.25
2019-02-08T08:18:38.653Z,96187.257
2019-02-08T08:18:47.630Z,96187.75
2019-02-08T08:18:56.945Z,96187.585
2019-02-08T08:19:05.978Z,96187.203
2019-02-08T08:19:15.967Z,96188.617
2019-02-08T08:19:25.402Z,96187.703
2019-02-08T08:19:34.790Z,96192.265
2019-02-08T08:19:44.181Z,96188.781
2019-02-08T08:19:53.493Z,96188.281
2019-02-08T08:20:02.539Z,96185.789
2019-02-08T08:20:11.621Z,96184.296
2019-02-08T08:20:20.848Z,96186.648
2019-02-08T08:20:30.204Z,96186.062
2019-02-08T08:20:39.572Z,96184.484
2019-02-08T08:20:48.971Z,96186.562
2019-02-08T08:20:58.442Z,96184.406
2019-02-08T08:21:07.497Z,96185.734
2019-02-08T08:21:16.847Z,96183.906
2019-02-08T08:21:26.192Z,96186.515
2019-02-08T08:21:35.537Z,96185.515
2019-02-08T08:21:45.900Z,96188.007
2019-02-08T08:21:55.225Z,96185.843
2019-02-08T08:22:04.244Z,96188.671
2019-02-08T08:22:13.585Z,96185.179
2019-02-08T08:22:22.719Z,96186.843
2019-02-08T08:22:32.025Z,96186.921
2019-02-08T08:22:41.389Z,96187.281
2019-02-08T08:22:50.727Z,96185.375
2019-02-08T08:22:59.964Z,96184.546
2019-02-08T08:23:08.709Z,96183.718
2019-02-08T08:23:18.986Z,96186.039
2019-02-08T08:23:28.332Z,96184.71
2019-02-08T08:23:37.694Z,96184.71
2019-02-08T08:23:46.716Z,96187.64
2019-02-08T08:23:55.956Z,96187.89
2019-02-08T08:24:04.841Z,96182.078
2019-02-08T08:24:14.172Z,96182.406
2019-02-08T08:24:23.220Z,96185.148
2019-02-08T08:24:33.563Z,96186.062
2019-02-08T08:24:42.436Z,96185.593
2019-02-08T08:24:51.777Z,96186.257
2019-02-08T08:25:00.841Z,96187.828
2019-02-08T08:25:10.933Z,96189.578
2019-02-08T08:25:21.208Z,96188.078
2019-02-08T08:25:34.185Z,96188.578
2019-02-08T08:25:43.207Z,96185.75
2019-02-08T08:25:52.639Z,96185.531
2019-02-08T08:26:01.568Z,96186.281
2019-02-08T08:26:10.753Z,96185.617
2019-02-08T08:26:20.198Z,96185.281
2019-02-08T08:26:28.483Z,96187.109
2019-02-08T08:26:37.009Z,96186.781
2019-02-08T08:26:46.271Z,96185.781
2019-02-08T08:26:55.615Z,96183.484
2019-02-08T08:27:04.134Z,96187.39
2019-02-08T08:27:12.375Z,96187.296
2019-02-08T08:27:21.544Z,96186.14
2019-02-08T08:27:29.773Z,96188.296
2019-02-08T08:27:38.616Z,96194.109
2019-02-08T08:27:47.117Z,96182.734
2019-02-08T08:27:55.698Z,96184.093
2019-02-08T08:28:04.165Z,96177.234
2019-02-08T08:28:12.904Z,96176.593
2019-02-08T08:28:21.339Z,96176.125
2019-02-08T08:28:29.853Z,96177.468
2019-02-08T08:28:38.624Z,96177.375
2019-02-08T08:28:47.023Z,96180.89
2019-02-08T08:28:55.797Z,96177.593
2019-02-08T08:29:05.421Z,96173.281
2019-02-08T08:29:13.778Z,96172.007
2019-02-08T08:29:23.379Z,96169.296
2019-02-08T08:29:32.281Z,96170.921
2019-02-08T08:29:40.818Z,96168.484
2019-02-08T08:29:49.693Z,96170.265
2019-02-08T08:29:58.381Z,96172.218
2019-02-08T08:30:08.110Z,96173.226
2019-02-08T08:30:16.335Z,96169.664
2019-02-08T08:30:25.430Z,96172.609
2019-02-08T08:30:34.735Z,96171.906
2019-02-08T08:30:43.918Z,96170
2019-02-08T08:30:52.990Z,96170.328
2019-02-08T08:31:01.885Z,96169.75
2019-02-08T08:31:10.753Z,96170.109
2019-02-08T08:31:20.091Z,96169.265
2019-02-08T08:31:29.227Z,96169.609
2019-02-08T08:31:38.589Z,96167.64
2019-02-08T08:31:48.020Z,96169.875
2019-02-08T08:31:58.407Z,96172
2019-02-08T08:32:07.526Z,96169.351
2019-02-08T08:32:16.722Z,96173.085
2019-02-08T08:32:26.046Z,96172.265
2019-02-08T08:32:35.296Z,96172.031
2019-02-08T08:32:44.700Z,96173.328
2019-02-08T08:32:53.730Z,96165.078
2019-02-08T08:33:03.775Z,96171.671
2019-02-08T08:33:14.128Z,96174.218
2019-02-08T08:33:23.502Z,96171.062
2019-02-08T08:33:32.865Z,96173.843
2019-02-08T08:33:41.872Z,96174.843
2019-02-08T08:33:50.595Z,96176.359
2019-02-08T08:33:59.765Z,96175.203
2019-02-08T08:34:08.719Z,96175.601
2019-02-08T08:34:18.885Z,96174.031
2019-02-08T08:34:27.656Z,96173.75
2019-02-08T08:34:36.885Z,96172.335
2019-02-08T08:34:46.229Z,96172.921
2019-02-08T08:34:55.571Z,96170.125
2019-02-08T08:35:05.632Z,96172.851
2019-02-08T08:35:15.018Z,96168.828
2019-02-08T08:35:23.915Z,96173.203
2019-02-08T08:35:32.673Z,96176.57
2019-02-08T08:35:42.070Z,96172.484
2019-02-08T08:35:51.567Z,96172.14
2019-02-08T08:36:00.773Z,96169.781
2019-02-08T08:36:09.955Z,96173.734
2019-02-08T08:36:19.309Z,96177.039
2019-02-08T08:36:28.769Z,96175.781
2019-02-08T08:36:38.130Z,96175.468
2019-02-08T08:36:47.472Z,96177.609
2019-02-08T08:36:56.888Z,96175.812
2019-02-08T08:37:05.936Z,96176.875
2019-02-08T08:37:14.957Z,96177.531
2019-02-08T08:37:25.113Z,96174.914
2019-02-08T08:37:34.376Z,96174.023
2019-02-08T08:37:43.792Z,96177.945
2019-02-08T08:37:52.991Z,96177.156
2019-02-08T08:38:01.949Z,96177.57
2019-02-08T08:38:11.352Z,96177.992
2019-02-08T08:38:20.703Z,96175.179
2019-02-08T08:38:30.059Z,96176.32
2019-02-08T08:38:39.438Z,96176.656
2019-02-08T08:38:48.461Z,96173.101
2019-02-08T08:38:57.490Z,96176.187
2019-02-08T08:39:06.527Z,96173.015
2019-02-08T08:39:15.413Z,96175.21
2019-02-08T08:39:24.220Z,96178.007
2019-02-08T08:39:32.799Z,96180.656
2019-02-08T08:39:42.574Z,96172.64
2019-02-08T08:39:51.200Z,96178.015
2019-02-08T08:39:59.406Z,96177.007
2019-02-08T08:40:07.621Z,96181.953
2019-02-08T08:40:15.803Z,96179.328
2019-02-08T08:40:24.428Z,96181.093
2019-02-08T08:40:33.192Z,96180.843
2019-02-08T08:40:42.071Z,96180.046
2019-02-08T08:40:50.486Z,96183.609
2019-02-08T08:40:59.326Z,96185.507
2019-02-08T08:41:07.883Z,96183.484
2019-02-08T08:41:16.484Z,96180.843
2019-02-08T08:41:24.924Z,96182.406
2019-02-08T08:41:34.425Z,96184.382
2019-02-08T08:41:43.242Z,96182.882
2019-02-08T08:41:51.697Z,96182.343
2019-02-08T08:42:00.248Z,96184.64
2019-02-08T08:42:08.450Z,96181.64
2019-02-08T08:42:16.804Z,96184.851
2019-02-08T08:42:25.017Z,96184.531
2019-02-08T08:42:33.198Z,96186.562
2019-02-08T08:42:41.388Z,96184.109
2019-02-08T08:42:50.364Z,96184.593
2019-02-08T08:42:59.168Z,96187.046
2019-02-08T08:43:07.808Z,96185.656
2019-02-08T08:43:17.644Z,96181.64
2019-02-08T08:43:26.224Z,96183.859
2019-02-08T08:43:34.459Z,96191.828
2019-02-08T08:43:42.650Z,96182.078
2019-02-08T08:43:52.096Z,96185.765
2019-02-08T08:44:01.252Z,96187.156
2019-02-08T08:44:10.478Z,96185.906
2019-02-08T08:44:19.520Z,96191.445
2019-02-08T08:44:27.920Z,96188.132
2019-02-08T08:44:37.258Z,96188.671
2019-02-08T08:44:46.580Z,96189.687
2019-02-08T08:44:55.595Z,96192.148
2019-02-08T08:45:04.440Z,96192.25
2019-02-08T08:45:13.685Z,96189.14
2019-02-08T08:45:22.565Z,96188.171
2019-02-08T08:45:31.565Z,96189.57
2019-02-08T08:45:40.931Z,96193.859
2019-02-08T08:45:50.342Z,96199.437
2019-02-08T08:46:00.434Z,96191.171
2019-02-08T08:46:09.583Z,96190.156
2019-02-08T08:46:18.914Z,96188.203
2019-02-08T08:46:27.725Z,96188.515
2019-02-08T08:46:37.001Z,96188.437
2019-02-08T08:46:47.206Z,96189.75
2019-02-08T08:46:56.368Z,96186.906
2019-02-08T08:47:05.373Z,96189.687
2019-02-08T08:47:14.720Z,96189.828
2019-02-08T08:47:23.720Z,96185.046
2019-02-08T08:47:32.900Z,96190.843
2019-02-08T08:47:41.937Z,96188.609
2019-02-08T08:47:50.841Z,96191.296
2019-02-08T08:47:59.941Z,96193.929
2019-02-08T08:48:09.114Z,96192.046
2019-02-08T08:48:18.462Z,96189.867
2019-02-08T08:48:27.060Z,96195.476
2019-02-08T08:48:35.966Z,96192.859
2019-02-08T08:48:44.676Z,96196.531
2019-02-08T08:48:53.670Z,96197.773
2019-02-08T08:49:02.661Z,96195.476
2019-02-08T08:49:11.854Z,96195.218
2019-02-08T08:49:20.994Z,96195.484
2019-02-08T08:49:30.050Z,96193.781
2019-02-08T08:49:39.223Z,96198.656
2019-02-08T08:49:47.975Z,96195.14
2019-02-08T08:49:56.945Z,96193.875
2019-02-08T08:50:05.827Z,96198.859
2019-02-08T08:50:15.098Z,96199.125
2019-02-08T08:50:24.454Z,96191.914
2019-02-08T08:50:33.786Z,96195.953
2019-02-08T08:50:44.723Z,96196.656
2019-02-08T08:50:54.300Z,96190.734
2019-02-08T08:51:03.169Z,96194.445
2019-02-08T08:51:12.563Z,96195.421
2019-02-08T08:51:21.816Z,96197.859
2019-02-08T08:51:31.017Z,96192.265
2019-02-08T08:51:40.306Z,96191.312
2019-02-08T08:51:49.673Z,96191
2019-02-08T08:51:58.869Z,96194.437
2019-02-08T08:52:07.927Z,96198.062
2019-02-08T08:52:16.938Z,96195.468
2019-02-08T08:52:26.283Z,96191.484
2019-02-08T08:52:35.346Z,96190.656
2019-02-08T08:52:44.391Z,96189.523
2019-02-08T08:52:53.761Z,96192.156
2019-02-08T08:53:02.824Z,96192.179
2019-02-08T08:53:12.128Z,96194.828
2019-02-08T08:53:21.268Z,96192.609
2019-02-08T08:53:30.206Z,96190.453
2019-02-08T08:53:39.389Z,96193.859
2019-02-08T08:53:49.140Z,96192.265
2019-02-08T08:53:59.160Z,96187.851
2019-02-08T08:54:07.641Z,96192.367
2019-02-08T08:54:15.863Z,96190.171
2019-02-08T08:54:24.732Z,96190.445
2019-02-08T08:54:33.782Z,96191.687
2019-02-08T08:54:43.155Z,96191.125
2019-02-08T08:54:52.486Z,96190.218
2019-02-08T08:55:01.064Z,96188.812
2019-02-08T08:55:09.364Z,96190.765
2019-02-08T08:55:17.641Z,96190.14
2019-02-08T08:55:26.922Z,96188.156
2019-02-08T08:55:42.125Z,96187.218
2019-02-08T08:55:48.722Z,96189.812
2019-02-08T08:55:57.941Z,96187.976
2019-02-08T08:56:06.968Z,96193.867
2019-02-08T08:56:16.152Z,96190.648
2019-02-08T08:56:25.136Z,96190.265
2019-02-08T08:56:34.348Z,96187.89
2019-02-08T08:56:43.964Z,96188.812
2019-02-08T08:56:53.384Z,96189.64
2019-02-08T08:57:02.256Z,96183.484
2019-02-08T08:57:11.596Z,96187.101
2019-02-08T08:57:21.685Z,96187.39
2019-02-08T08:57:32.897Z,96186.421
2019-02-08T08:57:42.092Z,96190.687
2019-02-08T08:57:51.313Z,96190.75
2019-02-08T08:58:00.513Z,96190.75
2019-02-08T08:58:09.630Z,96190.671
2019-02-08T08:58:18.878Z,96188.421
2019-02-08T08:58:28.772Z,96189.343
2019-02-08T08:58:37.972Z,96188.421
2019-02-08T08:58:47.003Z,96189.609
2019-02-08T08:58:56.369Z,96186.796
2019-02-08T08:59:05.243Z,96187.046
2019-02-08T08:59:17.945Z,96186.312
2019-02-08T08:59:27.002Z,96182.718
2019-02-08T08:59:37.166Z,96188.187
2019-02-08T08:59:46.303Z,96189.046
2019-02-08T08:59:57.516Z,96187.734
2019-02-08T09:00:08.007Z,96186.539
2019-02-08T09:00:16.788Z,96182.968
2019-02-08T09:00:25.513Z,96189
2019-02-08T09:00:34.555Z,96187.562
2019-02-08T09:00:43.755Z,96185.539
2019-02-08T09:00:52.995Z,96187.867
2019-02-08T09:01:01.974Z,96183.265
2019-02-08T09:01:10.681Z,96184.492
2019-02-08T09:01:19.896Z,96183.671
2019-02-08T09:01:30.264Z,96181.671
2019-02-08T09:01:39.612Z,96183.187
2019-02-08T09:01:48.467Z,96183.14
2019-02-08T09:01:57.488Z,96180.539
2019-02-08T09:02:06.515Z,96184.054
2019-02-08T09:02:15.562Z,96186.328
2019-02-08T09:02:24.886Z,96182.437
2019-02-08T09:02:34.205Z,96184.593
2019-02-08T09:02:43.569Z,96186.515
2019-02-08T09:02:52.725Z,96183.164
2019-02-08T09:03:01.974Z,96183.703
2019-02-08T09:03:10.182Z,96191.148
2019-02-08T09:03:19.486Z,96184.546
2019-02-08T17:25:05.080Z,95697.039
2019-02-08T17:25:13.258Z,95702.406
2019-02-08T17:25:21.520Z,95699.828
2019-02-08T18:22:04.234Z,95662.609
2019-02-08T18:22:14.359Z,95660.554
2019-02-08T18:22:22.559Z,95662.625
2019-02-08T18:22:31.721Z,95662.539
2019-02-08T18:22:39.869Z,95656.882
2019-02-08T18:22:48.098Z,95660.632
2019-02-08T18:22:56.286Z,95661.437
2019-02-08T18:23:04.650Z,95660.953
2019-02-08T18:23:13.457Z,95659.031
2019-02-08T18:23:22.438Z,95661.437
2019-02-08T18:23:31.806Z,95657.851
2019-02-08T18:23:41.065Z,95658.015
2019-02-08T18:23:50.071Z,95657.187
2019-02-08T18:23:59.912Z,95657.203
2019-02-08T18:24:08.935Z,95656.968
2019-02-08T18:24:19.206Z,95655.875
2019-02-08T18:24:27.842Z,95653.078
2019-02-08T18:24:36.682Z,95655.828
2019-02-08T18:24:45.816Z,95654.812
2019-02-08T18:24:54.536Z,95656.492
2019-02-08T18:25:03.433Z,95652.093
2019-02-08T18:25:12.508Z,95651.429
2019-02-08T18:25:21.556Z,95651.218
2019-02-08T18:25:30.589Z,95653.226
2019-02-08T18:25:39.164Z,95653.554
2019-02-08T18:25:48.204Z,95650.484
2019-02-08T18:25:58.322Z,95646.359
2019-02-08T18:26:07.438Z,95649.945
2019-02-08T18:26:16.783Z,95652.101
2019-02-08T18:26:25.883Z,95650.703
2019-02-08T18:26:35.227Z,95647.75
2019-02-08T18:26:44.592Z,95646.828
2019-02-08T18:26:53.665Z,95644.281
2019-02-08T18:27:02.655Z,95647.546
2019-02-08T18:27:13.029Z,95648.312
2019-02-08T18:27:22.388Z,95644.265
2019-02-08T18:27:31.740Z,95647.039
2019-02-08T18:27:41.107Z,95651.085
2019-02-08T18:27:50.452Z,95651.953
2019-02-08T18:27:59.822Z,95648.812
2019-02-08T18:28:12.171Z,95648.562
2019-02-08T18:28:21.703Z,95649.484
2019-02-08T18:28:29.998Z,95648.25
2019-02-08T18:28:39.223Z,95645.531
2019-02-08T18:28:47.394Z,95646.867
2019-02-08T18:28:55.588Z,95645.882
2019-02-08T18:29:03.769Z,95645.906
2019-02-08T18:29:11.930Z,95644.195
2019-02-08T18:29:20.102Z,95643.609
2019-02-08T18:29:28.293Z,95642.39
2019-02-08T18:29:36.515Z,95640.828
2019-02-08T18:29:44.692Z,95642.312
2019-02-08T18:29:52.848Z,95642.664
2019-02-08T18:30:01.026Z,95640.812
2019-02-08T18:30:09.194Z,95644.953
2019-02-08T18:30:18.775Z,95644.312
2019-02-08T18:30:27.704Z,95641.898
2019-02-08T18:30:35.870Z,95642.968
2019-02-08T18:30:44.467Z,95637.851
2019-02-08T18:30:52.877Z,95639.265
2019-02-08T18:31:01.349Z,95639.671
2019-02-08T18:31:10.155Z,95638.671
2019-02-08T18:31:18.708Z,95642.828
2019-02-08T18:31:27.259Z,95638.007
2019-02-08T18:31:35.748Z,95644
2019-02-08T18:31:44.200Z,95641.078
2019-02-08T18:31:52.712Z,95640.843
2019-02-08T18:32:00.975Z,95635.203
2019-02-08T18:32:09.176Z,95640.093
2019-02-08T18:32:18.021Z,95635.843
2019-02-08T18:32:27.286Z,95638.593
2019-02-08T18:32:36.532Z,95639.437
2019-02-08T18:32:45.358Z,95636.515
2019-02-08T18:32:54.342Z,95638.843
2019-02-08T18:33:02.785Z,95639.843
2019-02-08T18:33:11.572Z,95639.515
2019-02-08T18:33:20.808Z,95635.437
2019-02-08T18:33:29.431Z,95635.687
2019-02-08T18:33:38.002Z,95635.367
2019-02-08T18:33:47.418Z,95636.117
2019-02-08T18:33:57.098Z,95634.101
2019-02-08T18:34:05.444Z,95635.843
2019-02-08T18:34:13.954Z,95633.367
2019-02-08T18:34:22.920Z,95632.867
2019-02-08T18:34:31.730Z,95631.718
2019-02-08T18:34:40.373Z,95630.39
2019-02-08T18:34:50.191Z,95634.031
2019-02-08T18:34:59.000Z,95633.546
2019-02-08T18:35:07.583Z,95633.546
2019-02-08T18:35:16.930Z,95635.093
2019-02-08T18:35:26.007Z,95633.515
2019-02-08T18:35:35.348Z,95635.375
2019-02-08T18:35:44.545Z,95633.765
2019-02-08T18:35:53.852Z,95630.531
2019-02-08T18:36:03.776Z,95634.429
2019-02-08T18:36:13.947Z,95637.414
2019-02-08T18:36:23.272Z,95635.843
2019-02-08T18:36:32.459Z,95638.187
2019-02-08T18:36:41.654Z,95633.687
2019-02-08T18:36:50.655Z,95634.281
2019-02-08T18:36:59.841Z,95632.046
2019-02-08T18:37:08.540Z,95636.187
2019-02-08T18:37:17.667Z,95638.679
2019-02-08T18:37:27.038Z,95638.671
2019-02-08T18:37:36.410Z,95637.015
2019-02-08T18:37:45.767Z,95636.429
2019-02-08T18:37:55.140Z,95635.515
2019-02-08T18:38:04.987Z,95669.937
2019-02-08T18:38:14.288Z,95636.531
2019-02-08T18:38:23.494Z,95634.625
2019-02-08T18:38:32.834Z,95637.601
2019-02-08T18:38:42.152Z,95637.843
2019-02-08T18:38:51.375Z,95640.164
2019-02-08T18:39:02.202Z,95639.25
2019-02-08T18:39:11.393Z,95641.429
2019-02-08T18:39:20.709Z,95638.109
2019-02-08T18:39:30.074Z,95638.437
2019-02-08T18:39:39.221Z,95639.179
2019-02-08T18:39:48.513Z,95639.5
2019-02-08T18:39:57.831Z,95638.171
2019-02-08T18:40:06.844Z,95635.109
2019-02-08T18:40:15.867Z,95638
2019-02-08T18:40:25.218Z,95636.867
2019-02-08T18:40:34.372Z,95636.031
2019-02-08T18:40:43.372Z,95638.179
2019-02-08T18:40:52.436Z,95635.687
2019-02-08T18:41:02.548Z,95635.515
2019-02-08T18:41:11.273Z,95634.296
2019-02-08T18:41:20.615Z,95634.625
2019-02-08T18:41:29.783Z,95633.703
2019-02-08T18:41:38.796Z,95635.187
2019-02-08T18:41:48.157Z,95634.937
2019-02-08T18:41:58.527Z,95636.703
2019-02-08T18:42:07.351Z,95632.546
2019-02-08T18:42:16.736Z,95632.46
2019-02-08T18:42:25.946Z,95633.531
2019-02-08T18:42:35.258Z,95631.226
2019-02-08T18:42:44.567Z,95633.468
2019-02-08T18:42:53.715Z,95632.546
2019-02-08T18:43:02.746Z,95635.859
2019-02-08T18:43:12.079Z,95636.015
2019-02-08T18:43:21.388Z,95637.421
2019-02-08T18:43:31.727Z,95637.273
2019-02-08T18:43:41.091Z,95637.437
2019-02-08T18:43:50.232Z,95638.835
2019-02-08T18:44:00.446Z,95635.843
2019-02-08T18:44:09.707Z,95636.007
2019-02-08T18:44:18.889Z,95636.531
2019-02-08T18:44:28.984Z,95641.578
2019-02-08T18:44:39.142Z,95628.546
2019-02-08T18:44:49.256Z,95629.039
2019-02-08T18:44:59.066Z,95629.539
2019-02-08T18:45:08.672Z,95630.703
2019-02-08T18:45:18.592Z,95634.531
2019-02-08T18:45:28.732Z,95633.625
2019-02-08T18:45:38.766Z,95638.101
2019-02-08T18:45:48.847Z,95640.406
2019-02-08T18:45:59.002Z,95636.593
2019-02-08T18:46:08.565Z,95638.843
2019-02-08T18:46:18.715Z,95639.515
2019-02-08T18:46:28.486Z,95635.703
2019-02-08T18:46:38.684Z,95639.765
2019-02-08T18:46:48.710Z,95640.187
2019-02-08T18:46:58.846Z,95640
2019-02-08T18:47:08.482Z,95638.007
2019-02-08T18:47:18.259Z,95642.328
2019-02-08T18:47:28.443Z,95641.656
2019-02-08T18:47:38.174Z,95643.078
2019-02-08T18:47:47.473Z,95640.921
2019-02-08T18:47:56.733Z,95641
2019-02-08T18:48:05.777Z,95641.578
2019-02-08T18:48:15.101Z,95641.492
2019-02-08T18:48:24.090Z,95639.671
2019-02-08T18:48:33.445Z,95640.5
2019-02-08T18:48:42.877Z,95641.515
2019-02-08T18:48:51.901Z,95639
2019-02-08T18:49:01.083Z,95640.664
2019-02-08T18:49:09.400Z,95639.171
2019-02-08T18:49:17.601Z,95637.843
2019-02-08T18:49:25.836Z,95636.875
2019-02-08T18:49:33.973Z,95637.367
2019-02-08T18:49:43.109Z,95640.679
2019-02-08T18:49:51.249Z,95638.023
2019-02-08T18:49:59.391Z,95638.265
2019-02-08T18:50:08.498Z,95636.937
2019-02-08T18:50:16.682Z,95637.687
2019-02-08T18:50:24.824Z,95636.765
2019-02-08T18:50:33.095Z,95638.671
2019-02-08T18:50:42.081Z,95637.093
2019-02-08T18:50:50.217Z,95637.695
2019-02-08T18:50:58.355Z,95637.781
2019-02-08T18:51:08.537Z,95641.171
2019-02-08T18:51:16.692Z,95636.375
2019-02-08T18:51:24.828Z,95637.187
2019-02-08T18:51:32.974Z,95637.843
2019-02-08T18:51:41.126Z,95639
2019-02-08T18:51:49.279Z,95638.25
2019-02-08T18:51:57.498Z,95636.835
2019-02-08T18:52:05.675Z,95636.757
2019-02-08T18:52:13.879Z,95633.109
2019-02-08T18:52:23.032Z,95636.031
2019-02-08T18:52:31.184Z,95634.359
2019-02-08T18:52:39.313Z,95635.687
2019-02-08T18:52:48.443Z,95633.687
2019-02-08T18:52:56.581Z,95638.914
2019-02-08T18:53:04.729Z,95638.328
2019-02-08T18:53:14.875Z,95638.843
2019-02-08T18:53:23.047Z,95635.195
2019-02-08T18:53:31.186Z,95637.015
2019-02-08T18:53:39.368Z,95635.437
2019-02-08T18:53:48.447Z,95637.015
2019-02-08T18:53:56.589Z,95635.679
2019-02-08T18:54:06.779Z,95634.015
2019-02-08T18:54:15.484Z,95634.843
2019-02-08T18:54:24.290Z,95634.781
2019-02-08T18:54:33.369Z,95632.695
2019-02-08T18:54:42.728Z,95632.695
2019-02-08T18:54:52.899Z,95635.593
2019-02-08T18:55:02.953Z,95635.757
2019-02-08T18:55:11.915Z,95632.187
2019-02-08T18:55:20.934Z,95632.203
2019-02-08T18:55:30.075Z,95631.929
2019-02-08T18:55:39.105Z,95629.875
2019-02-08T18:55:48.455Z,95632.515
2019-02-08T18:55:57.835Z,95633.015
2019-02-08T18:56:06.902Z,95631.851
2019-02-08T18:56:16.210Z,95633.937
2019-02-08T18:56:25.587Z,95629.046
2019-02-08T18:56:34.251Z,95631.281
2019-02-08T18:56:43.568Z,95626.218
2019-02-08T18:56:52.900Z,95628.359
2019-02-08T18:57:01.892Z,95630.875
2019-02-08T18:57:12.113Z,95624.64
2019-02-08T18:57:21.352Z,95626.71
2019-02-08T18:57:32.680Z,95629.765
2019-02-08T18:57:41.939Z,95625.375
2019-02-08T18:57:51.292Z,95626.523
2019-02-08T18:58:00.463Z,95628.171
2019-02-08T18:58:10.320Z,95627.187
2019-02-08T18:58:22.827Z,95628.031
2019-02-08T18:58:32.040Z,95625.125
2019-02-08T18:58:41.387Z,95625.781
2019-02-08T18:58:50.700Z,95622.953
2019-02-08T18:59:00.833Z,95623.859
2019-02-08T18:59:10.383Z,95625.984
2019-02-08T18:59:19.471Z,95622
2019-02-08T18:59:29.598Z,95625.226
2019-02-08T18:59:38.911Z,95622.898
2019-02-08T18:59:48.090Z,95622.976
2019-02-08T18:59:58.238Z,95623.632
2019-02-08T19:00:07.234Z,95623.875
2019-02-08T19:00:17.249Z,95621.882
2019-02-08T19:00:26.446Z,95621.578
2019-02-08T19:00:40.167Z,95620.906
2019-02-08T19:00:48.194Z,95622.382
2019-02-08T19:00:58.686Z,95620.875